Time;durP1;ratioP1;P1;durP2;ratioP2;P2;SDS_P1;SDS_P2;PMS_P1;PMS_P2;Temp;Humidity;BMP_temperature;BMP_pressure;BME280_temperature;BME280_humidity;BME280_pressure;Samples;Min_cycle;Max_cycle;Signal;HPM_P1;HPM_P2
2021/01/29 00:01:31;;;;;;;0.40;0.40;;;0.50;99.90;;;;;;4415052;32;20073;-74
2021/01/29 00:03:56;;;;;;;0.30;0.30;;;0.40;99.90;;;;;;4414799;32;20082;-74
2021/01/29 00:06:21;;;;;;;0.30;0.30;;;0.40;99.90;;;;;;4415418;32;20070;-74
2021/01/29 00:08:47;;;;;;;0.40;0.40;;;0.40;99.90;;;;;;4414552;32;20073;-74
2021/01/29 00:11:12;;;;;;;0.30;0.30;;;0.40;99.90;;;;;;4414523;32;20527;-74
2021/01/29 00:13:38;;;;;;;0.40;0.40;;;0.50;99.90;;;;;;4414672;32;20113;-74
2021/01/29 00:16:04;;;;;;;0.30;0.30;;;0.50;99.90;;;;;;4414343;32;20069;-74
2021/01/29 00:18:29;;;;;;;0.40;0.40;;;0.50;99.90;;;;;;4414085;32;20141;-74
2021/01/29 00:20:55;;;;;;;0.40;0.40;;;0.50;99.90;;;;;;4414423;32;20393;-74
2021/01/29 00:23:21;;;;;;;0.40;0.40;;;0.60;99.90;;;;;;4414623;32;20061;-74
2021/01/29 00:25:50;;;;;;;0.60;0.60;;;0.50;99.90;;;;;;4414385;32;20124;-74
2021/01/29 00:28:17;;;;;;;0.52;0.52;;;0.50;99.90;;;;;;4413656;32;20092;-74
2021/01/29 00:30:44;;;;;;;0.50;0.50;;;0.40;99.90;;;;;;4414446;32;20066;-74
2021/01/29 00:33:12;;;;;;;0.40;0.40;;;0.40;99.90;;;;;;4415354;32;20417;-74
2021/01/29 00:35:38;;;;;;;0.30;0.30;;;0.30;99.90;;;;;;4415048;32;20242;-74
2021/01/29 00:38:06;;;;;;;0.43;0.43;;;0.20;99.90;;;;;;4414431;32;20073;-74
2021/01/29 00:40:32;;;;;;;0.40;0.40;;;0.20;99.90;;;;;;4414294;32;20684;-74
2021/01/29 00:42:58;;;;;;;0.57;0.57;;;0.30;99.90;;;;;;4414580;32;20065;-74
2021/01/29 00:45:26;;;;;;;0.30;0.30;;;0.30;99.90;;;;;;4414726;32;20061;-74
2021/01/29 00:47:51;;;;;;;0.30;0.30;;;0.40;99.90;;;;;;4415136;32;20073;-74
2021/01/29 00:50:17;;;;;;;0.60;0.60;;;0.40;99.90;;;;;;4413713;32;20088;-74
2021/01/29 00:52:43;;;;;;;0.30;0.30;;;0.50;99.90;;;;;;4414142;32;20120;-74
2021/01/29 00:55:10;;;;;;;0.30;0.30;;;0.50;99.90;;;;;;4414612;32;20090;-74
2021/01/29 00:57:36;;;;;;;0.40;0.40;;;0.40;99.90;;;;;;4414316;32;20104;-74
2021/01/29 01:00:03;;;;;;;0.45;0.45;;;0.40;99.90;;;;;;4414881;32;20507;-74
2021/01/29 01:02:29;;;;;;;1.60;0.82;;;0.40;99.90;;;;;;4414436;32;20184;-74
2021/01/29 01:04:54;;;;;;;0.30;0.30;;;0.40;99.90;;;;;;4414459;32;20077;-74
2021/01/29 01:07:20;;;;;;;0.40;0.40;;;0.50;99.90;;;;;;4413996;32;20065;-74
2021/01/29 01:09:46;;;;;;;0.30;0.30;;;0.50;99.90;;;;;;4414125;32;20095;-74
2021/01/29 01:12:11;;;;;;;0.50;0.50;;;0.60;99.90;;;;;;4415416;32;20073;-74
2021/01/29 01:14:37;;;;;;;0.40;0.40;;;0.50;99.90;;;;;;4415001;32;20120;-74
2021/01/29 01:17:04;;;;;;;0.50;0.50;;;0.60;99.90;;;;;;4414586;32;20077;-74
2021/01/29 01:19:30;;;;;;;0.50;0.50;;;0.70;99.90;;;;;;4414548;32;20485;-74
2021/01/29 01:21:55;;;;;;;0.37;0.37;;;0.70;99.90;;;;;;4413807;32;20077;-74
2021/01/29 01:24:21;;;;;;;0.40;0.40;;;0.60;99.90;;;;;;4413966;32;20057;-74
2021/01/29 01:26:46;;;;;;;1.75;0.90;;;0.60;99.90;;;;;;4414784;32;20165;-74
2021/01/29 01:29:12;;;;;;;0.30;0.30;;;0.70;99.90;;;;;;4413880;32;20066;-74
2021/01/29 01:31:37;;;;;;;0.50;0.50;;;0.60;99.90;;;;;;4414252;32;20491;-74
2021/01/29 01:34:03;;;;;;;4.75;1.40;;;0.50;99.90;;;;;;4413962;32;20069;-75
2021/01/29 01:36:28;;;;;;;0.37;0.37;;;0.60;99.90;;;;;;4413508;32;20408;-74
2021/01/29 01:38:54;;;;;;;0.30;0.30;;;0.70;99.90;;;;;;4415268;32;20066;-74
2021/01/29 01:41:19;;;;;;;0.30;0.30;;;0.70;99.90;;;;;;4416903;32;20069;-74
2021/01/29 01:43:45;;;;;;;0.40;0.40;;;0.70;99.90;;;;;;4416795;32;20082;-74
2021/01/29 01:46:14;;;;;;;0.30;0.30;;;0.80;99.90;;;;;;4416308;32;20073;-74
2021/01/29 01:49:00;;;;;;;1.30;1.20;;;0.70;99.90;;;;;;4416355;32;20420;-74
2021/01/29 01:51:31;;;;;;;0.30;0.30;;;0.60;99.90;;;;;;4416318;32;20082;-74
2021/01/29 01:54:00;;;;;;;0.40;0.40;;;0.50;99.90;;;;;;4416685;32;20404;-74
2021/01/29 01:56:37;;;;;;;0.30;0.30;;;0.60;99.90;;;;;;4416485;32;20126;-74
2021/01/29 01:59:07;;;;;;;0.30;0.30;;;0.70;99.90;;;;;;4418154;32;20116;-74
2021/01/29 02:01:34;;;;;;;0.50;0.50;;;0.70;99.90;;;;;;4416494;32;20081;-75
2021/01/29 02:04:01;;;;;;;0.30;0.30;;;0.70;99.90;;;;;;4416533;32;20086;-74
2021/01/29 02:06:28;;;;;;;0.50;0.50;;;0.60;99.90;;;;;;4416047;32;20528;-74
2021/01/29 02:08:58;;;;;;;0.40;0.40;;;0.50;99.90;;;;;;4416536;32;20065;-74
2021/01/29 02:11:24;;;;;;;0.40;0.40;;;0.50;99.90;;;;;;4416803;32;20547;-74
2021/01/29 02:13:50;;;;;;;0.40;0.40;;;0.40;99.90;;;;;;4416403;32;20503;-74
2021/01/29 02:16:24;;;;;;;0.32;0.32;;;0.40;99.90;;;;;;4416980;32;20117;-74
2021/01/29 02:19:29;;;;;;;0.40;0.40;;;0.50;99.90;;;;;;4417125;32;20473;-74
2021/01/29 02:22:25;;;;;;;0.40;0.40;;;0.50;99.90;;;;;;4396672;32;20070;-74
2021/01/29 02:25:16;;;;;;;0.40;0.40;;;0.40;99.90;;;;;;4416329;32;20068;-74
2021/01/29 02:27:55;;;;;;;0.45;0.45;;;0.40;99.90;;;;;;4416542;32;20113;-74
2021/01/29 02:30:28;;;;;;;0.40;0.40;;;0.50;99.90;;;;;;4416359;32;20076;-74
2021/01/29 02:33:34;;;;;;;0.40;0.40;;;0.60;99.90;;;;;;4415985;32;20090;-74
2021/01/29 02:36:39;;;;;;;0.40;0.40;;;0.50;99.90;;;;;;4395620;32;20077;-74
2021/01/29 02:39:16;;;;;;;0.30;0.30;;;0.50;99.90;;;;;;4396395;32;20123;-75
2021/01/29 02:41:56;;;;;;;0.30;0.30;;;0.60;99.90;;;;;;4416618;32;20082;-74
2021/01/29 02:44:37;;;;;;;0.40;0.40;;;0.50;99.90;;;;;;4416410;32;20073;-74
2021/01/29 02:47:12;;;;;;;0.50;0.50;;;0.40;99.90;;;;;;4415051;32;20062;-74
2021/01/29 02:50:18;;;;;;;1.35;1.02;;;0.50;99.90;;;;;;4415173;32;20082;-74
2021/01/29 02:52:57;;;;;;;3.30;1.62;;;0.40;99.90;;;;;;4396127;32;20078;-74
2021/01/29 02:55:30;;;;;;;0.40;0.40;;;0.40;99.90;;;;;;4415659;32;20073;-74
2021/01/29 02:58:07;;;;;;;0.50;0.50;;;0.30;99.90;;;;;;4416162;32;20061;-74
2021/01/29 03:00:39;;;;;;;0.43;0.43;;;0.40;99.90;;;;;;4417093;32;20074;-74
2021/01/29 03:03:15;;;;;;;1.37;1.33;;;0.40;99.90;;;;;;4415533;32;20086;-74
2021/01/29 03:05:48;;;;;;;0.40;0.40;;;0.30;99.90;;;;;;4415461;32;20068;-74
2021/01/29 03:08:19;;;;;;;0.35;0.35;;;0.40;99.90;;;;;;4415452;32;20065;-74
2021/01/29 03:10:51;;;;;;;0.40;0.40;;;0.50;99.90;;;;;;4415882;32;20502;-74
2021/01/29 03:13:30;;;;;;;0.40;0.40;;;0.50;99.90;;;;;;4416423;32;20078;-74
2021/01/29 03:16:01;;;;;;;0.57;0.57;;;0.60;99.90;;;;;;4415337;32;20106;-74
2021/01/29 03:18:34;;;;;;;0.30;0.30;;;0.50;99.90;;;;;;4414961;32;20065;-74
2021/01/29 03:21:07;;;;;;;0.30;0.30;;;0.60;99.90;;;;;;4415232;32;20225;-74
2021/01/29 03:23:39;;;;;;;0.40;0.40;;;0.60;99.90;;;;;;4415565;32;20066;-75
2021/01/29 03:26:24;;;;;;;0.40;0.40;;;0.60;99.90;;;;;;4415404;32;20065;-75
2021/01/29 03:28:55;;;;;;;0.43;0.43;;;0.40;99.90;;;;;;4415939;32;20054;-74
2021/01/29 03:31:23;;;;;;;0.30;0.30;;;0.50;99.90;;;;;;4416251;32;20132;-74
2021/01/29 03:33:58;;;;;;;0.40;0.40;;;0.40;99.90;;;;;;4416328;32;20418;-74
2021/01/29 03:36:28;;;;;;;0.30;0.30;;;0.30;99.90;;;;;;4415426;32;20069;-74
2021/01/29 03:39:02;;;;;;;3.10;1.70;;;0.30;99.90;;;;;;4415535;32;20062;-74
2021/01/29 03:41:32;;;;;;;0.43;0.43;;;0.30;99.90;;;;;;4416142;32;20086;-74
2021/01/29 03:44:19;;;;;;;0.40;0.40;;;0.40;99.90;;;;;;4415263;32;20078;-74
2021/01/29 03:47:00;;;;;;;0.40;0.40;;;0.30;99.90;;;;;;4415122;32;20074;-74
2021/01/29 03:49:45;;;;;;;;;;;0.40;99.90;;;;;;4415207;32;20083;-74
2021/01/29 03:52:20;;;;;;;0.40;0.40;;;0.50;99.90;;;;;;4403908;32;20006;-74
2021/01/29 03:55:26;;;;;;;0.30;0.30;;;0.50;99.90;;;;;;4414913;32;20079;-74
2021/01/29 03:57:58;;;;;;;0.40;0.40;;;0.50;99.90;;;;;;4395860;32;20406;-74
2021/01/29 04:00:37;;;;;;;0.40;0.40;;;0.20;99.90;;;;;;4415801;32;20082;-74
2021/01/29 04:03:11;;;;;;;1.75;1.20;;;0.00;99.90;;;;;;4415356;32;20098;-74
2021/01/29 04:06:01;;;;;;;0.30;0.30;;;0.00;99.90;;;;;;4414683;32;20057;-74
2021/01/29 04:08:34;;;;;;;0.30;0.30;;;0.00;99.90;;;;;;4415040;32;20169;-74
2021/01/29 04:11:04;;;;;;;0.35;0.35;;;-0.10;99.90;;;;;;4416078;32;20053;-74
2021/01/29 04:13:50;;;;;;;0.40;0.40;;;0.00;99.90;;;;;;4414845;32;20065;-74
2021/01/29 04:16:23;;;;;;;0.40;0.40;;;0.00;99.90;;;;;;4414557;32;20123;-74
2021/01/29 04:18:51;;;;;;;2.30;1.10;;;0.00;99.90;;;;;;4414304;32;20082;-74
2021/01/29 04:21:28;;;;;;;0.40;0.40;;;-0.10;99.90;;;;;;4414070;32;20515;-74
2021/01/29 04:23:59;;;;;;;0.40;0.40;;;-0.10;99.90;;;;;;4414621;32;20073;-74
2021/01/29 04:26:38;;;;;;;0.40;0.40;;;-0.10;99.90;;;;;;4415427;32;20078;-74
2021/01/29 04:29:09;;;;;;;0.30;0.30;;;0.00;99.90;;;;;;4414562;32;20073;-74
2021/01/29 04:31:36;;;;;;;0.50;0.50;;;0.10;99.90;;;;;;4414669;32;20090;-74
2021/01/29 04:34:07;;;;;;;0.43;0.43;;;0.20;99.90;;;;;;4414960;32;20070;-74
2021/01/29 04:36:35;;;;;;;0.50;0.50;;;0.30;99.90;;;;;;4413891;32;20070;-74
2021/01/29 04:39:11;;;;;;;0.30;0.30;;;0.30;99.90;;;;;;4414728;32;20499;-74
2021/01/29 04:41:52;;;;;;;0.40;0.40;;;0.20;99.90;;;;;;4414638;32;20112;-74
2021/01/29 04:44:43;;;;;;;0.40;0.40;;;0.20;99.90;;;;;;4414688;32;20077;-74
2021/01/29 04:47:22;;;;;;;0.52;0.52;;;0.10;99.90;;;;;;4403409;32;20078;-74
2021/01/29 04:50:12;;;;;;;0.30;0.30;;;0.20;99.90;;;;;;4414361;32;20113;-74
2021/01/29 04:52:46;;;;;;;0.82;0.82;;;0.30;99.90;;;;;;4404371;32;20564;-74
2021/01/29 04:55:33;;;;;;;0.40;0.40;;;0.40;99.90;;;;;;4414206;32;20090;-74
2021/01/29 04:58:08;;;;;;;0.60;0.60;;;0.30;99.90;;;;;;4403033;32;20082;-74
2021/01/29 05:00:49;;;;;;;0.30;0.30;;;0.30;99.90;;;;;;4414342;32;20074;-74
2021/01/29 05:03:54;;;;;;;0.35;0.35;;;0.20;99.90;;;;;;4414297;32;20070;-74
2021/01/29 05:06:49;;;;;;;0.52;0.52;;;0.10;99.90;;;;;;4394298;32;20069;-74
2021/01/29 05:09:42;;;;;;;0.40;0.40;;;0.10;99.90;;;;;;4389759;32;20087;-74
2021/01/29 05:12:21;;;;;;;0.37;0.37;;;0.00;99.90;;;;;;4394342;32;20070;-74
2021/01/29 05:14:50;;;;;;;0.40;0.40;;;0.00;99.90;;;;;;4418979;32;20421;-74
2021/01/29 05:17:46;;;;;;;0.40;0.40;;;-0.10;99.90;;;;;;4418556;32;20073;-74
2021/01/29 05:20:55;;;;;;;0.60;0.60;;;0.00;99.90;;;;;;4408929;32;20074;-74
2021/01/29 05:23:51;;;;;;;0.40;0.40;;;0.00;99.90;;;;;;4400308;32;20066;-74
2021/01/29 05:26:45;;;;;;;0.50;0.50;;;0.00;99.90;;;;;;4408342;32;20069;-74
2021/01/29 05:29:36;;;;;;;0.70;0.70;;;0.10;99.90;;;;;;4407728;32;20090;-74
2021/01/29 05:32:26;;;;;;;0.47;0.47;;;0.00;99.90;;;;;;4408472;32;20074;-74
2021/01/29 05:35:31;;;;;;;0.45;0.45;;;0.00;99.90;;;;;;4407594;32;20409;-74
2021/01/29 05:38:25;;;;;;;0.50;0.50;;;0.00;99.90;;;;;;4399231;32;20069;-74
2021/01/29 05:41:25;;;;;;;0.50;0.50;;;0.10;99.90;;;;;;4407322;32;20086;-74
2021/01/29 05:44:30;;;;;;;0.50;0.50;;;0.10;99.90;;;;;;4407451;32;20558;-74
2021/01/29 05:47:35;;;;;;;0.30;0.30;;;0.10;99.90;;;;;;4399892;32;20065;-74
2021/01/29 05:50:23;;;;;;;0.30;0.30;;;0.10;99.90;;;;;;4399684;32;20133;-74
2021/01/29 05:53:25;;;;;;;0.60;0.60;;;0.10;99.90;;;;;;4419859;32;20504;-74
2021/01/29 05:55:54;;;;;;;0.40;0.40;;;0.10;99.90;;;;;;4410032;32;20426;-74
2021/01/29 05:58:33;;;;;;;1.17;1.08;;;0.30;99.90;;;;;;4418927;32;20420;-74
2021/01/29 06:01:10;;;;;;;0.40;0.40;;;0.20;99.90;;;;;;4420033;32;20082;-75
2021/01/29 06:04:06;;;;;;;0.50;0.50;;;0.10;99.90;;;;;;4419446;32;20065;-75
2021/01/29 06:06:55;;;;;;;0.75;0.75;;;0.00;99.90;;;;;;4395291;32;20518;-75
2021/01/29 06:09:54;;;;;;;0.40;0.40;;;0.00;99.90;;;;;;4407349;32;20061;-75
2021/01/29 06:12:48;;;;;;;5.37;1.55;;;0.00;99.90;;;;;;4408831;32;20421;-75
2021/01/29 06:15:50;;;;;;;0.37;0.37;;;0.10;99.90;;;;;;4409231;32;20095;-75
2021/01/29 06:18:41;;;;;;;0.40;0.40;;;0.00;99.90;;;;;;4407466;32;20069;-75
2021/01/29 06:21:36;;;;;;;1.10;1.02;;;0.10;99.90;;;;;;4418161;32;20406;-75
2021/01/29 06:24:41;;;;;;;0.30;0.30;;;0.20;99.90;;;;;;4406377;32;20074;-75
2021/01/29 06:27:46;;;;;;;0.60;0.60;;;0.20;99.90;;;;;;4396291;32;20070;-74
2021/01/29 06:30:36;;;;;;;0.60;0.60;;;0.10;99.90;;;;;;4396425;32;20534;-75
2021/01/29 06:33:31;;;;;;;0.40;0.40;;;0.10;99.90;;;;;;4415834;32;20065;-75
2021/01/29 06:36:24;;;;;;;0.30;0.30;;;0.10;99.90;;;;;;4404136;32;20098;-75
2021/01/29 06:39:14;;;;;;;0.45;0.45;;;0.10;99.90;;;;;;4415886;32;20061;-75
2021/01/29 06:42:13;;;;;;;0.60;0.60;;;0.20;99.90;;;;;;4405431;32;20073;-75
2021/01/29 06:45:15;;;;;;;0.40;0.40;;;0.20;99.90;;;;;;4416323;32;20132;-75
2021/01/29 06:48:01;;;;;;;0.60;0.60;;;0.20;99.90;;;;;;4404555;32;20110;-75
2021/01/29 06:50:59;;;;;;;1.10;0.80;;;0.10;99.90;;;;;;4416905;32;20086;-75
2021/01/29 06:54:04;;;;;;;0.40;0.40;;;0.20;99.90;;;;;;4403818;32;20154;-75
2021/01/29 06:56:51;;;;;;;0.30;0.30;;;0.30;99.90;;;;;;4396169;32;20531;-74
2021/01/29 06:59:44;;;;;;;0.40;0.40;;;0.30;99.90;;;;;;4390493;32;20057;-74
2021/01/29 07:02:39;;;;;;;0.30;0.30;;;0.30;99.90;;;;;;4404395;32;20069;-75
2021/01/29 07:05:12;;;;;;;0.50;0.50;;;0.40;99.90;;;;;;4405232;32;20089;-74
2021/01/29 07:07:52;;;;;;;1.37;1.25;;;0.20;99.90;;;;;;4415557;32;20448;-75
2021/01/29 07:10:57;;;;;;;0.70;0.70;;;0.20;99.90;;;;;;4415961;32;20132;-75
2021/01/29 07:13:49;;;;;;;0.40;0.40;;;0.20;99.90;;;;;;4395510;32;20069;-75
2021/01/29 07:16:24;;;;;;;0.40;0.40;;;0.10;99.90;;;;;;4404977;32;20082;-75
2021/01/29 07:18:58;;;;;;;0.40;0.40;;;0.20;99.90;;;;;;4415656;32;20113;-75
2021/01/29 07:21:55;;;;;;;0.37;0.37;;;0.10;99.90;;;;;;4415599;32;20397;-75
2021/01/29 07:24:30;;;;;;;0.30;0.30;;;0.20;99.90;;;;;;4404032;32;20519;-75
2021/01/29 07:27:12;;;;;;;0.30;0.30;;;0.10;99.90;;;;;;4416110;32;20065;-75
2021/01/29 07:30:18;;;;;;;0.60;0.60;;;0.20;99.90;;;;;;4415926;32;20550;-75
2021/01/29 07:32:47;;;;;;;0.40;0.40;;;0.20;99.90;;;;;;4404026;32;20098;-75
2021/01/29 07:35:38;;;;;;;1.83;1.30;;;0.20;99.90;;;;;;4414932;32;20065;-75
2021/01/29 07:38:23;;;;;;;;;;;0.20;99.90;;;;;;4404677;32;20503;-75
2021/01/29 07:41:16;;;;;;;0.30;0.30;;;0.20;99.90;;;;;;4403690;32;19941;-74
2021/01/29 07:44:07;;;;;;;0.50;0.50;;;0.20;99.90;;;;;;4404657;32;20081;-74
2021/01/29 07:46:52;;;;;;;2.03;1.45;;;0.30;99.90;;;;;;4404443;32;20500;-74
2021/01/29 07:49:29;;;;;;;0.40;0.40;;;0.30;99.90;;;;;;4415475;32;20082;-76
2021/01/29 07:52:19;;;;;;;0.40;0.40;;;0.40;99.90;;;;;;4414887;32;20065;-74
2021/01/29 07:55:05;;;;;;;0.30;0.30;;;0.40;99.90;;;;;;4404202;32;20078;-74
2021/01/29 07:57:52;;;;;;;0.40;0.40;;;0.50;99.90;;;;;;4410293;32;20116;-74
2021/01/29 08:00:24;;;;;;;0.35;0.35;;;0.50;99.90;;;;;;4399833;32;20078;-74
2021/01/29 08:03:30;;;;;;;1.08;0.85;;;0.40;99.90;;;;;;4400393;32;20559;-74
2021/01/29 08:06:04;;;;;;;4.37;2.25;;;0.30;99.90;;;;;;4380245;32;20074;-75
2021/01/29 08:08:35;;;;;;;0.30;0.30;;;0.30;99.90;;;;;;4412624;32;20066;-74
2021/01/29 08:11:03;;;;;;;0.62;0.62;;;0.40;99.90;;;;;;4415570;32;20062;-75
2021/01/29 08:13:48;;;;;;;0.45;0.45;;;0.40;99.90;;;;;;4415092;32;20127;-75
2021/01/29 08:16:47;;;;;;;0.40;0.40;;;0.30;99.90;;;;;;4414027;32;20065;-75
2021/01/29 08:19:20;;;;;;;1.20;1.15;;;0.30;99.90;;;;;;4407658;32;20097;-75
2021/01/29 08:21:54;;;;;;;0.75;0.75;;;0.40;99.90;;;;;;4413670;32;20093;-74
2021/01/29 08:24:46;;;;;;;0.60;0.60;;;0.30;99.90;;;;;;4414432;32;20062;-74
2021/01/29 08:27:51;;;;;;;0.35;0.35;;;0.40;99.90;;;;;;4398420;32;20085;-74
2021/01/29 08:30:56;;;;;;;0.57;0.57;;;0.50;99.90;;;;;;4390861;32;20073;-75
2021/01/29 08:33:46;;;;;;;0.30;0.30;;;0.60;99.90;;;;;;4389438;32;20081;-74
2021/01/29 08:36:39;;;;;;;11.12;2.25;;;0.60;99.90;;;;;;4410700;32;20125;-74
2021/01/29 08:39:28;;;;;;;0.40;0.40;;;0.60;99.90;;;;;;4403430;32;20070;-75
2021/01/29 08:42:21;;;;;;;1.77;1.65;;;0.60;99.90;;;;;;4387105;32;91872;-75
2021/01/29 08:45:09;;;;;;;0.40;0.40;;;0.50;99.90;;;;;;4400828;32;20077;-75
2021/01/29 08:48:02;;;;;;;0.62;0.55;;;0.50;99.90;;;;;;4400625;32;20069;-74
2021/01/29 08:50:57;;;;;;;0.40;0.40;;;0.60;99.90;;;;;;4402333;32;20069;-74
2021/01/29 08:54:01;;;;;;;0.40;0.40;;;0.60;99.90;;;;;;4399296;32;20090;-74
2021/01/29 08:56:46;;;;;;;0.30;0.30;;;0.70;99.90;;;;;;4404017;32;20070;-74
2021/01/29 08:59:17;;;;;;;0.40;0.40;;;0.60;99.90;;;;;;4414155;32;20062;-76
2021/01/29 09:02:06;;;;;;;1.45;1.00;;;0.50;99.90;;;;;;4413278;32;20662;-74
2021/01/29 09:04:53;;;;;;;0.30;0.30;;;0.60;99.90;;;;;;4411100;32;20128;-74
2021/01/29 09:07:21;;;;;;;0.37;0.37;;;0.60;99.90;;;;;;4407405;32;20078;-74
2021/01/29 09:09:49;;;;;;;0.45;0.45;;;0.70;99.90;;;;;;4412816;32;20074;-74
2021/01/29 09:12:24;;;;;;;0.40;0.40;;;0.60;99.90;;;;;;4412845;32;20070;-74
2021/01/29 09:14:56;;;;;;;0.30;0.30;;;0.70;99.90;;;;;;4413607;32;20061;-74
2021/01/29 09:17:29;;;;;;;0.57;0.57;;;0.70;99.90;;;;;;4409982;32;20065;-74
2021/01/29 09:19:58;;;;;;;0.70;0.70;;;0.80;99.90;;;;;;4412781;32;20066;-75
2021/01/29 09:23:03;;;;;;;0.40;0.40;;;1.00;99.90;;;;;;4413039;32;20149;-75
2021/01/29 09:25:48;;;;;;;0.40;0.40;;;1.00;99.90;;;;;;4398493;32;20081;-75
2021/01/29 09:28:21;;;;;;;0.30;0.30;;;0.90;99.90;;;;;;4410769;32;20102;-74
2021/01/29 09:30:57;;;;;;;3.15;1.10;;;0.90;99.90;;;;;;4412209;32;20082;-74
2021/01/29 09:33:46;;;;;;;0.65;0.65;;;0.90;99.90;;;;;;4410759;32;20077;-74
2021/01/29 09:36:20;;;;;;;0.32;0.32;;;0.90;99.90;;;;;;4402296;32;20066;-74
2021/01/29 09:38:56;;;;;;;0.57;0.57;;;0.90;99.90;;;;;;4413229;32;20073;-74
2021/01/29 09:41:30;;;;;;;0.32;0.32;;;0.90;99.90;;;;;;4411863;32;20062;-74
2021/01/29 09:44:02;;;;;;;0.40;0.40;;;1.00;99.90;;;;;;4411672;32;20066;-74
2021/01/29 09:46:36;;;;;;;0.40;0.40;;;0.90;99.90;;;;;;4412512;32;20116;-74
2021/01/29 09:49:05;;;;;;;0.30;0.30;;;1.00;99.90;;;;;;4418447;32;20480;-74
2021/01/29 09:51:49;;;;;;;0.50;0.50;;;1.10;99.90;;;;;;4413270;32;20069;-73
2021/01/29 09:54:29;;;;;;;0.52;0.52;;;1.20;99.90;;;;;;4412998;32;20086;-73
2021/01/29 09:57:01;;;;;;;0.60;0.60;;;1.30;99.90;;;;;;4412759;32;20173;-74
2021/01/29 09:59:40;;;;;;;0.40;0.40;;;1.30;99.90;;;;;;4415450;32;20524;-74
2021/01/29 10:02:18;;;;;;;0.30;0.30;;;1.10;99.90;;;;;;4407178;32;20062;-73
2021/01/29 10:05:02;;;;;;;0.77;0.77;;;1.20;99.90;;;;;;4415364;32;20086;-76
2021/01/29 10:07:30;;;;;;;0.30;0.30;;;1.00;99.90;;;;;;4420079;32;20405;-74
2021/01/29 10:10:23;;;;;;;1.10;1.05;;;1.10;99.90;;;;;;4415845;32;20419;-74
2021/01/29 10:12:56;;;;;;;0.37;0.37;;;1.10;99.90;;;;;;4399237;32;20116;-74
2021/01/29 10:15:23;;;;;;;2.90;1.17;;;1.20;99.90;;;;;;4400655;32;20063;-73
2021/01/29 10:18:14;;;;;;;0.77;0.77;;;1.20;99.90;;;;;;4413427;32;20062;-73
2021/01/29 10:20:39;;;;;;;;;;;1.20;99.90;;;;;;4415744;32;20132;-76
2021/01/29 10:23:15;;;;;;;0.40;0.40;;;1.20;99.90;;;;;;4419913;32;19956;-76
2021/01/29 10:26:16;;;;;;;0.40;0.40;;;1.30;99.90;;;;;;4430768;32;20483;-76
2021/01/29 10:28:52;;;;;;;0.30;0.30;;;1.20;99.90;;;;;;4418676;32;20069;-74
2021/01/29 10:31:22;;;;;;;0.80;0.68;;;1.20;99.90;;;;;;4416081;32;20058;-73
2021/01/29 10:33:57;;;;;;;0.67;0.67;;;1.30;99.90;;;;;;4410432;32;20093;-73
2021/01/29 10:36:28;;;;;;;0.65;0.65;;;1.30;99.90;;;;;;4412615;32;20378;-73
2021/01/29 10:39:05;;;;;;;0.40;0.40;;;1.40;99.90;;;;;;4404804;32;20136;-73
2021/01/29 10:41:54;;;;;;;0.32;0.32;;;1.40;99.90;;;;;;4415084;32;20081;-74
2021/01/29 10:44:24;;;;;;;0.30;0.30;;;1.40;99.90;;;;;;4414977;32;20128;-75
2021/01/29 10:47:15;;;;;;;1.27;1.20;;;1.40;99.90;;;;;;4414129;32;20499;-73
2021/01/29 10:50:06;;;;;;;0.60;0.57;;;1.50;99.90;;;;;;4404249;32;20144;-74
2021/01/29 10:52:37;;;;;;;0.40;0.40;;;1.50;99.90;;;;;;4415573;32;20160;-74
2021/01/29 10:55:15;;;;;;;0.40;0.40;;;1.50;99.90;;;;;;4415098;32;20065;-74
2021/01/29 10:58:17;;;;;;;0.52;0.52;;;1.60;99.90;;;;;;4414293;32;20081;-75
2021/01/29 11:00:51;;;;;;;0.32;0.32;;;1.80;99.90;;;;;;4403203;32;20074;-75
2021/01/29 11:03:21;;;;;;;0.30;0.30;;;2.00;99.90;;;;;;4414067;32;20135;-74
2021/01/29 11:05:48;;;;;;;1.35;0.57;;;2.10;99.90;;;;;;4413276;32;20078;-74
2021/01/29 11:08:24;;;;;;;0.50;0.50;;;2.10;99.90;;;;;;4414355;32;20093;-74
2021/01/29 11:11:00;;;;;;;0.35;0.35;;;2.10;99.90;;;;;;4403175;32;20113;-73
2021/01/29 11:13:47;;;;;;;8.82;1.73;;;2.20;99.90;;;;;;4413836;32;20085;-74
2021/01/29 11:16:17;;;;;;;0.43;0.43;;;2.10;99.90;;;;;;4413859;32;20074;-73
2021/01/29 11:18:45;;;;;;;0.40;0.40;;;2.10;99.90;;;;;;4413880;32;20077;-73
2021/01/29 11:21:44;;;;;;;0.37;0.37;;;2.10;99.90;;;;;;4413908;32;20069;-73
2021/01/29 11:24:34;;;;;;;0.57;0.57;;;2.10;99.90;;;;;;4404820;32;20359;-73
2021/01/29 11:27:09;;;;;;;0.40;0.40;;;2.20;99.90;;;;;;4402792;32;20129;-73
2021/01/29 11:30:00;;;;;;;0.30;0.30;;;2.30;99.90;;;;;;4412383;32;20128;-71
2021/01/29 11:32:33;;;;;;;1.17;1.15;;;2.20;99.90;;;;;;4402518;32;20073;-72
2021/01/29 11:35:20;;;;;;;0.93;0.93;;;2.20;99.90;;;;;;4413368;32;20065;-72
2021/01/29 11:38:09;;;;;;;0.45;0.45;;;2.10;99.90;;;;;;4403688;32;20116;-72
2021/01/29 11:40:53;;;;;;;0.30;0.30;;;2.10;99.90;;;;;;4401121;32;20074;-72
2021/01/29 11:43:44;;;;;;;0.30;0.30;;;2.30;99.90;;;;;;4404457;32;20066;-72
2021/01/29 11:46:12;;;;;;;;;;;2.20;99.90;;;;;;4420724;32;20081;-72
2021/01/29 11:48:51;;;;;;;0.37;0.37;;;2.20;99.90;;;;;;4411061;32;20018;-72
2021/01/29 11:51:38;;;;;;;1.23;0.68;;;2.30;99.90;;;;;;4410302;32;20068;-73
2021/01/29 11:54:13;;;;;;;0.40;0.40;;;2.40;99.90;;;;;;4399192;32;20695;-73
2021/01/29 11:56:52;;;;;;;0.50;0.50;;;2.40;99.90;;;;;;4406232;32;20061;-72
2021/01/29 11:59:25;;;;;;;0.50;0.50;;;2.50;99.90;;;;;;4414908;32;20077;-73
2021/01/29 12:02:01;;;;;;;0.47;0.47;;;2.50;99.90;;;;;;4411330;32;20511;-74
2021/01/29 12:04:53;;;;;;;2.85;1.05;;;2.50;99.90;;;;;;4412133;32;20188;-74
2021/01/29 12:07:30;;;;;;;0.30;0.30;;;2.60;99.90;;;;;;4413470;32;20054;-74
2021/01/29 12:10:05;;;;;;;0.70;0.70;;;2.50;99.90;;;;;;4412874;32;20081;-74
2021/01/29 12:12:51;;;;;;;0.40;0.40;;;2.50;99.90;;;;;;4410896;32;20066;-74
2021/01/29 12:15:26;;;;;;;0.40;0.40;;;2.50;99.90;;;;;;4411966;32;20140;-74
2021/01/29 12:17:56;;;;;;;0.47;0.47;;;2.60;99.90;;;;;;4413459;32;20090;-74
2021/01/29 12:20:28;;;;;;;0.50;0.50;;;2.70;99.90;;;;;;4410077;32;20074;-73
2021/01/29 12:23:33;;;;;;;0.32;0.32;;;2.70;99.90;;;;;;4411842;32;20094;-73
2021/01/29 12:26:25;;;;;;;0.30;0.30;;;2.70;99.90;;;;;;4405416;32;20104;-72
2021/01/29 12:29:01;;;;;;;0.70;0.70;;;2.80;99.90;;;;;;4409559;32;20132;-72
2021/01/29 12:31:43;;;;;;;0.50;0.50;;;2.70;99.90;;;;;;4411496;32;20124;-72
2021/01/29 12:34:46;;;;;;;0.50;0.50;;;2.70;99.90;;;;;;4407241;32;20062;-74
2021/01/29 12:37:23;;;;;;;0.30;0.30;;;2.80;99.90;;;;;;4399267;32;20073;-73
2021/01/29 12:39:54;;;;;;;3.30;1.27;;;2.60;99.90;;;;;;4409243;32;20553;-73
2021/01/29 12:42:59;;;;;;;0.30;0.30;;;2.60;99.90;;;;;;4411037;32;20081;-73
2021/01/29 12:45:30;;;;;;;0.30;0.30;;;2.60;99.90;;;;;;4399087;32;20137;-73
2021/01/29 12:48:33;;;;;;;0.30;0.30;;;2.60;99.90;;;;;;4410582;32;20441;-73
2021/01/29 12:51:11;;;;;;;0.75;0.75;;;2.60;99.90;;;;;;4389207;32;20345;-73
2021/01/29 12:53:42;;;;;;;0.57;0.57;;;2.60;99.90;;;;;;4404224;32;20434;-73
2021/01/29 12:56:23;;;;;;;0.30;0.30;;;2.60;99.90;;;;;;4410694;32;20081;-73
2021/01/29 12:58:55;;;;;;;0.60;0.60;;;2.70;99.90;;;;;;4412605;32;20134;-73
2021/01/29 13:01:44;;;;;;;0.30;0.30;;;2.70;99.90;;;;;;4413884;32;20073;-73
2021/01/29 13:04:39;;;;;;;0.40;0.40;;;2.80;99.90;;;;;;4405361;32;20128;-73
2021/01/29 13:07:12;;;;;;;0.90;0.82;;;2.90;99.90;;;;;;4398911;32;20572;-73
2021/01/29 13:09:59;;;;;;;0.30;0.30;;;2.80;99.90;;;;;;4409060;32;20073;-73
2021/01/29 13:12:29;;;;;;;0.50;0.50;;;2.80;99.90;;;;;;4394023;32;20129;-73
2021/01/29 13:15:16;;;;;;;1.75;0.80;;;2.80;99.90;;;;;;4411308;32;20165;-73
2021/01/29 13:17:45;;;;;;;8.20;1.35;;;2.90;99.90;;;;;;4396880;32;20178;-73
2021/01/29 13:20:22;;;;;;;0.30;0.30;;;2.90;99.90;;;;;;4409315;32;20086;-73
2021/01/29 13:22:52;;;;;;;0.60;0.60;;;2.90;99.90;;;;;;4416193;32;20562;-73
2021/01/29 13:25:23;;;;;;;0.65;0.65;;;2.90;99.90;;;;;;4412180;32;20078;-74
2021/01/29 13:28:13;;;;;;;0.60;0.60;;;2.90;99.90;;;;;;4411414;32;20073;-73
2021/01/29 13:30:41;;;;;;;0.40;0.40;;;3.00;99.90;;;;;;4411613;32;20582;-73
2021/01/29 13:33:28;;;;;;;2.42;0.95;;;3.00;99.90;;;;;;4413011;32;20077;-73
2021/01/29 13:36:19;;;;;;;0.30;0.30;;;2.90;99.90;;;;;;4407149;32;20466;-73
2021/01/29 13:38:44;;;;;;;1.20;1.10;;;2.90;99.90;;;;;;4404203;32;20074;-73
2021/01/29 13:41:15;;;;;;;0.62;0.60;;;2.80;99.90;;;;;;4416781;32;20074;-73
2021/01/29 13:43:42;;;;;;;0.60;0.60;;;2.70;99.90;;;;;;4417173;32;20077;-73
2021/01/29 13:46:25;;;;;;;0.50;0.50;;;2.70;99.90;;;;;;4416949;32;20485;-73
2021/01/29 13:49:30;;;;;;;0.62;0.62;;;2.70;99.90;;;;;;4413995;32;20078;-73
2021/01/29 13:51:56;;;;;;;0.30;0.30;;;2.60;99.90;;;;;;4403242;32;20137;-74
2021/01/29 13:54:34;;;;;;;0.40;0.40;;;2.70;99.90;;;;;;4415355;32;20074;-74
2021/01/29 13:57:13;;;;;;;0.30;0.30;;;2.60;99.90;;;;;;4418033;32;20504;-74
2021/01/29 13:59:43;;;;;;;0.70;0.70;;;2.60;99.90;;;;;;4416838;32;20077;-75
2021/01/29 14:02:31;;;;;;;0.30;0.30;;;2.60;99.90;;;;;;4417031;32;20082;-72
2021/01/29 14:05:09;;;;;;;0.57;0.57;;;2.50;99.90;;;;;;4389155;32;20496;-73